createdAt,value
2022-10-28T00:01:24.968Z,4.38
2022-10-28T00:03:58.374Z,4.68
2022-10-28T00:08:58.124Z,4.03
2022-10-28T00:11:29.173Z,4.45
2022-10-28T00:14:00.879Z,4.25
2022-10-28T00:16:30.652Z,4.18
2022-10-28T00:18:59.769Z,4.13
2022-10-28T00:21:32.736Z,4.53
2022-10-28T00:24:00.715Z,4.47
2022-10-28T00:26:32.374Z,4.32
2022-10-28T00:29:02.460Z,4.18
2022-10-28T00:31:31.564Z,4.30
2022-10-28T00:34:00.681Z,4.18
2022-10-28T00:36:35.578Z,4.13
2022-10-28T00:39:04.675Z,4.35
2022-10-28T00:41:35.207Z,4.20
2022-10-28T00:44:48.423Z,4.13
2022-10-28T00:47:29.362Z,4.38
2022-10-28T00:50:10.762Z,4.10
2022-10-28T00:52:40.094Z,3.85
2022-10-28T00:55:09.235Z,4.50
2022-10-28T00:57:38.274Z,4.00
2022-10-28T01:00:08.122Z,3.83
2022-10-28T01:02:44.659Z,3.90
2022-10-28T01:05:16.966Z,3.85
2022-10-28T01:07:58.674Z,4.28
2022-10-28T01:10:47.559Z,4.50
2022-10-28T01:13:45.303Z,3.78
2022-10-28T01:16:29.714Z,3.97
2022-10-28T01:18:59.868Z,4.50
2022-10-28T01:21:33.229Z,4.03
2022-10-28T01:24:19.098Z,3.78
2022-10-28T01:27:29.561Z,3.65
2022-10-28T01:30:13.927Z,3.95
2022-10-28T01:33:02.666Z,4.18
2022-10-28T01:35:52.626Z,3.70
2022-10-28T01:38:50.701Z,4.53
2022-10-28T01:41:29.996Z,3.70
2022-10-28T01:44:31.749Z,4.65
2022-10-28T01:47:26.776Z,3.97
2022-10-28T01:50:06.278Z,3.65
2022-10-28T01:52:33.901Z,3.90
2022-10-28T01:55:34.380Z,4.07
2022-10-28T01:58:06.585Z,4.35
2022-10-28T02:00:35.954Z,4.07
2022-10-28T02:03:09.969Z,4.00
2022-10-28T02:05:52.610Z,4.53
2022-10-28T02:08:20.109Z,4.00
2022-10-28T02:10:56.809Z,3.88
2022-10-28T02:13:36.265Z,3.53
2022-10-28T02:16:38.695Z,4.13
2022-10-28T02:19:17.980Z,4.13
2022-10-28T02:22:18.720Z,4.20
2022-10-28T02:25:05.326Z,4.22
2022-10-28T02:28:05.277Z,3.92
2022-10-28T02:30:42.626Z,4.57
2022-10-28T02:33:13.227Z,4.13
2022-10-28T02:35:55.996Z,4.75
2022-10-28T02:38:33.697Z,4.30
2022-10-28T02:41:06.922Z,4.30
2022-10-28T02:46:04.850Z,4.63
2022-10-28T02:48:38.447Z,3.92
2022-10-28T02:51:16.730Z,4.88
2022-10-28T02:54:07.622Z,4.10
2022-10-28T02:56:40.499Z,4.18
2022-10-28T02:59:12.948Z,4.25
2022-10-28T03:01:40.382Z,4.53
2022-10-28T03:04:09.330Z,4.10
2022-10-28T03:06:37.293Z,3.90
2022-10-28T03:09:04.618Z,3.97
2022-10-28T03:11:33.078Z,4.35
2022-10-28T03:14:00.475Z,4.45
2022-10-28T03:16:27.873Z,4.47
2022-10-28T03:18:55.410Z,4.70
2022-10-28T03:21:22.868Z,4.70
2022-10-28T03:23:50.177Z,4.93
2022-10-28T03:26:17.670Z,5.15
2022-10-28T03:28:46.254Z,4.30
2022-10-28T03:31:15.228Z,4.47
2022-10-28T03:33:42.950Z,4.68
2022-10-28T03:36:10.492Z,4.35
2022-10-28T03:38:37.778Z,4.47
2022-10-28T03:41:05.536Z,4.20
2022-10-28T03:43:32.955Z,4.32
2022-10-28T03:46:00.442Z,4.22
2022-10-28T03:48:28.051Z,4.53
2022-10-28T03:50:55.939Z,4.88
2022-10-28T03:53:27.610Z,4.40
2022-10-28T03:58:25.753Z,4.57
2022-10-28T04:00:55.681Z,4.90
2022-10-28T04:03:24.830Z,4.47
2022-10-28T04:05:52.381Z,4.88
2022-10-28T04:08:20.687Z,5.60
2022-10-28T04:10:48.562Z,4.72
2022-10-28T04:13:18.190Z,4.50
2022-10-28T04:15:45.759Z,4.60
2022-10-28T04:18:13.330Z,4.60
2022-10-28T04:20:41.180Z,4.45
2022-10-28T04:23:14.379Z,5.10
2022-10-28T04:25:43.000Z,4.53
2022-10-28T04:28:10.420Z,4.30
2022-10-28T04:30:37.843Z,5.07
2022-10-28T04:33:05.516Z,4.88
2022-10-28T04:35:33.083Z,4.50
2022-10-28T04:38:00.333Z,4.72
2022-10-28T04:40:28.029Z,5.40
2022-10-28T04:42:55.644Z,4.82
2022-10-28T04:45:25.671Z,5.00
2022-10-28T04:47:58.610Z,4.80
2022-10-28T04:50:27.413Z,4.97
2022-10-28T04:52:55.244Z,5.10
2022-10-28T04:55:23.401Z,5.05
2022-10-28T04:57:58.981Z,5.05
2022-10-28T05:00:29.581Z,4.70
2022-10-28T05:02:57.734Z,4.53
2022-10-28T05:05:25.894Z,4.43
2022-10-28T05:07:53.487Z,4.15
2022-10-28T05:10:21.166Z,4.47
2022-10-28T05:12:48.519Z,4.85
2022-10-28T05:15:16.520Z,4.35
2022-10-28T05:17:45.711Z,3.97
2022-10-28T05:20:14.689Z,4.03
2022-10-28T05:22:50.350Z,4.43
2022-10-28T05:25:18.821Z,4.07
2022-10-28T05:27:46.745Z,4.88
2022-10-28T05:30:14.868Z,4.03
2022-10-28T05:32:42.313Z,4.22
2022-10-28T05:35:10.691Z,4.20
2022-10-28T05:37:38.120Z,4.20
2022-10-28T05:40:05.849Z,4.55
2022-10-28T05:42:33.173Z,4.50
2022-10-28T05:45:00.615Z,3.88
2022-10-28T05:47:28.004Z,4.13
2022-10-28T05:49:55.511Z,5.47
2022-10-28T05:52:23.126Z,5.30
2022-10-28T05:54:55.113Z,5.47
2022-10-28T05:57:22.558Z,4.47
2022-10-28T05:59:50.384Z,4.70
2022-10-28T06:02:17.718Z,5.22
2022-10-28T06:04:45.176Z,6.05
2022-10-28T06:07:17.326Z,5.60
2022-10-28T06:09:45.374Z,5.30
2022-10-28T06:12:11.329Z,4.70
2022-10-28T06:14:43.266Z,4.85
2022-10-28T06:17:13.172Z,4.95
2022-10-28T06:19:41.123Z,4.28
2022-10-28T06:22:09.032Z,4.00
2022-10-28T06:24:37.540Z,5.18
2022-10-28T06:27:06.353Z,4.80
2022-10-28T06:29:35.008Z,3.67
2022-10-28T06:32:02.719Z,3.85
2022-10-28T06:34:30.048Z,4.53
2022-10-28T06:36:57.699Z,4.07
2022-10-28T06:41:53.099Z,4.97
2022-10-28T06:44:21.621Z,4.03
2022-10-28T06:46:51.232Z,5.10
2022-10-28T06:49:18.650Z,3.88
2022-10-28T06:51:46.124Z,4.20
2022-10-28T06:54:13.580Z,4.63
2022-10-28T06:56:41.045Z,4.07
2022-10-28T06:59:09.189Z,4.70
2022-10-28T07:01:36.801Z,4.05
2022-10-28T07:04:04.448Z,3.90
2022-10-28T07:06:34.162Z,5.22
2022-10-28T07:09:01.601Z,4.10
2022-10-28T07:11:29.203Z,4.57
2022-10-28T07:13:56.775Z,4.53
2022-10-28T07:16:39.406Z,4.50
2022-10-28T07:19:06.878Z,4.53
2022-10-28T07:21:34.674Z,4.43
2022-10-28T07:24:02.658Z,4.47
2022-10-28T07:26:29.975Z,4.30
2022-10-28T07:28:57.584Z,4.60
2022-10-28T07:31:25.177Z,4.47
2022-10-28T07:33:53.880Z,4.30
2022-10-28T07:36:22.530Z,4.60
2022-10-28T07:38:51.854Z,3.97
2022-10-28T07:41:21.795Z,5.32
2022-10-28T07:43:49.140Z,4.15
2022-10-28T07:46:18.830Z,4.15
2022-10-28T07:48:46.583Z,3.75
2022-10-28T07:51:15.702Z,4.53
2022-10-28T07:53:44.216Z,4.00
2022-10-28T07:56:14.296Z,4.82
2022-10-28T07:58:43.499Z,4.10
2022-10-28T08:01:13.027Z,3.60
2022-10-28T08:03:40.756Z,3.72
2022-10-28T08:06:12.156Z,4.05
2022-10-28T08:08:42.402Z,3.38
2022-10-28T08:11:22.665Z,3.80
2022-10-28T08:13:53.671Z,3.78
2022-10-28T08:16:21.344Z,3.85
2022-10-28T08:18:48.990Z,4.30
2022-10-28T08:21:17.644Z,4.38
2022-10-28T08:23:46.876Z,4.05
2022-10-28T08:26:16.192Z,3.90
2022-10-28T08:28:46.771Z,4.07
2022-10-28T08:31:14.682Z,3.75
2022-10-28T08:33:46.981Z,3.83
2022-10-28T08:36:16.635Z,4.23
2022-10-28T08:38:47.068Z,4.50
2022-10-28T08:41:19.382Z,4.10
2022-10-28T08:44:01.055Z,4.30
2022-10-28T08:46:28.476Z,4.82
2022-10-28T08:48:55.840Z,4.05
2022-10-28T08:52:02.807Z,4.75
2022-10-28T08:54:51.424Z,4.20
2022-10-28T08:57:28.752Z,4.15
2022-10-28T09:00:00.207Z,4.38
2022-10-28T09:02:38.024Z,4.55
2022-10-28T09:05:17.524Z,4.25
2022-10-28T09:07:44.956Z,4.72
2022-10-28T09:10:15.706Z,5.20
2022-10-28T09:12:56.553Z,5.07
2022-10-28T09:15:52.555Z,4.85
2022-10-28T09:18:29.416Z,5.38
2022-10-28T09:21:05.205Z,4.90
2022-10-28T09:23:37.495Z,5.50
2022-10-28T09:26:20.986Z,4.80
2022-10-28T09:31:55.277Z,5.00
2022-10-28T09:34:48.672Z,4.35
2022-10-28T09:37:16.505Z,4.15
2022-10-28T09:39:49.758Z,4.75
2022-10-28T09:44:51.725Z,3.92
2022-10-28T09:47:41.686Z,4.33
2022-10-28T09:50:16.388Z,4.55
2022-10-28T09:52:50.221Z,3.92
2022-10-28T09:55:24.319Z,4.55
2022-10-28T09:57:52.029Z,4.25
2022-10-28T10:00:21.431Z,4.72
2022-10-28T10:02:53.310Z,4.95
2022-10-28T10:05:20.790Z,4.82
2022-10-28T10:08:03.260Z,4.63
2022-10-28T10:10:57.082Z,4.45
2022-10-28T10:13:29.170Z,4.97
2022-10-28T10:16:44.697Z,6.20
2022-10-28T10:19:12.542Z,6.57
2022-10-28T10:21:43.921Z,7.05
2022-10-28T10:24:31.655Z,6.78
2022-10-28T10:27:13.046Z,6.25
2022-10-28T10:29:50.074Z,6.47
2022-10-28T10:32:31.046Z,6.10
2022-10-28T10:35:03.545Z,5.55
2022-10-28T10:37:34.834Z,5.57
2022-10-28T10:40:22.103Z,5.38
2022-10-28T10:43:09.757Z,5.65
2022-10-28T10:45:37.544Z,4.95
2022-10-28T10:48:08.102Z,5.35
2022-10-28T10:50:38.065Z,5.68
2022-10-28T10:53:15.725Z,4.55
2022-10-28T10:55:50.520Z,4.40
2022-10-28T10:58:24.070Z,4.70
2022-10-28T11:00:54.182Z,5.07
2022-10-28T11:03:36.910Z,4.78
2022-10-28T11:06:24.727Z,4.95
2022-10-28T11:09:02.639Z,4.43
2022-10-28T11:11:37.179Z,4.85
2022-10-28T11:14:10.625Z,4.25
2022-10-28T11:16:55.757Z,4.00
2022-10-28T11:19:24.547Z,4.38
2022-10-28T11:22:14.069Z,3.90
2022-10-28T11:24:49.910Z,3.95
2022-10-28T11:27:20.449Z,4.60
2022-10-28T11:29:48.330Z,5.07
2022-10-28T11:32:44.073Z,5.68
2022-10-28T11:35:49.099Z,5.80
2022-10-28T11:38:33.983Z,5.32
2022-10-28T11:41:47.283Z,5.13
2022-10-28T11:44:20.201Z,4.45
2022-10-28T11:49:36.132Z,4.15
2022-10-28T11:53:00.491Z,4.25
2022-10-28T11:55:46.671Z,4.10
2022-10-28T11:58:31.370Z,4.78
2022-10-28T12:01:14.030Z,3.75
2022-10-28T12:03:50.630Z,4.32
2022-10-28T12:06:20.879Z,3.45
2022-10-28T12:09:00.959Z,4.45
2022-10-28T12:11:44.212Z,4.03
2022-10-28T12:14:29.302Z,4.22
2022-10-28T12:19:38.154Z,3.60
2022-10-28T12:22:29.389Z,4.20
2022-10-28T12:25:02.023Z,4.15
2022-10-28T12:27:36.050Z,4.15
2022-10-28T12:30:15.701Z,4.00
2022-10-28T12:32:45.042Z,4.13
2022-10-28T12:35:36.865Z,3.70
2022-10-28T12:38:28.676Z,3.88
2022-10-28T12:41:04.402Z,3.97
2022-10-28T12:43:40.533Z,3.90
2022-10-28T12:46:20.812Z,3.55
2022-10-28T12:48:55.286Z,3.90
2022-10-28T12:51:29.736Z,2.92
2022-10-28T12:54:17.389Z,3.42
2022-10-28T12:56:52.768Z,3.63
2022-10-28T12:59:30.175Z,3.30
2022-10-28T13:02:01.527Z,3.80
2022-10-28T13:04:29.554Z,3.20
2022-10-28T13:07:44.515Z,3.25
2022-10-28T13:10:24.541Z,3.65
2022-10-28T13:13:19.186Z,3.38
2022-10-28T13:15:59.436Z,3.60
2022-10-28T13:18:59.357Z,3.53
2022-10-28T13:21:29.710Z,3.53
2022-10-28T13:24:21.178Z,3.80
2022-10-28T13:26:49.372Z,3.45
2022-10-28T13:29:26.529Z,3.25
2022-10-28T13:31:54.947Z,3.47
2022-10-28T13:34:52.102Z,3.33
2022-10-28T13:37:22.733Z,3.40
2022-10-28T13:39:51.494Z,3.20
2022-10-28T13:42:23.398Z,3.30
2022-10-28T13:44:51.958Z,3.05
2022-10-28T13:47:35.692Z,3.38
2022-10-28T13:50:09.300Z,3.47
2022-10-28T13:52:37.927Z,2.70
2022-10-28T13:55:14.655Z,3.42
2022-10-28T13:57:44.818Z,2.88
2022-10-28T14:00:18.631Z,3.05
2022-10-28T14:03:07.404Z,3.20
2022-10-28T14:05:38.092Z,3.08
2022-10-28T14:08:15.224Z,3.10
2022-10-28T14:11:01.722Z,3.05
2022-10-28T14:13:31.503Z,3.00
2022-10-28T14:16:23.761Z,3.10
2022-10-28T14:19:21.905Z,3.03
2022-10-28T14:22:02.752Z,2.88
2022-10-28T14:24:42.054Z,2.92
2022-10-28T14:27:12.263Z,2.92
2022-10-28T14:29:44.929Z,3.20
2022-10-28T14:32:33.631Z,2.70
2022-10-28T14:35:10.371Z,2.90
2022-10-28T14:38:08.765Z,2.70
2022-10-28T14:41:12.427Z,2.92
2022-10-28T14:44:12.168Z,2.67
2022-10-28T14:47:09.220Z,3.13
2022-10-28T14:49:38.260Z,2.85
2022-10-28T14:52:19.240Z,3.20
2022-10-28T14:54:55.530Z,5.80
2022-10-28T14:57:34.140Z,4.45
2022-10-28T15:00:05.848Z,4.13
2022-10-28T15:02:36.606Z,4.32
2022-10-28T15:05:17.990Z,4.13
2022-10-28T15:07:45.813Z,3.92
2022-10-28T15:10:19.407Z,4.22
2022-10-28T15:12:51.896Z,4.07
2022-10-28T15:15:27.482Z,4.13
2022-10-28T15:17:55.815Z,4.63
2022-10-28T15:20:24.861Z,4.70
2022-10-28T15:22:54.652Z,4.03
2022-10-28T15:25:23.167Z,4.32
2022-10-28T15:27:52.344Z,4.18
2022-10-28T15:30:25.754Z,4.28
2022-10-28T15:33:28.657Z,4.65
2022-10-28T15:36:12.596Z,3.88
2022-10-28T15:38:46.419Z,4.88
2022-10-28T15:41:23.717Z,4.10
2022-10-28T15:44:02.994Z,4.43
2022-10-28T15:46:33.605Z,4.47
2022-10-28T15:49:03.531Z,4.25
2022-10-28T15:51:31.000Z,4.10
2022-10-28T15:54:17.561Z,4.13
2022-10-28T15:57:00.261Z,4.18
2022-10-28T15:59:28.077Z,3.78
2022-10-28T16:02:02.257Z,4.72
2022-10-28T16:04:46.121Z,4.38
2022-10-28T16:07:13.628Z,4.93
2022-10-28T16:09:47.689Z,6.00
2022-10-28T16:12:20.331Z,6.10
2022-10-28T16:15:01.460Z,6.88
2022-10-28T16:17:36.389Z,6.03
2022-10-28T16:20:19.068Z,5.15
2022-10-28T16:22:47.258Z,5.88
2022-10-28T16:25:20.142Z,5.28
2022-10-28T16:27:48.608Z,6.25
2022-10-28T16:30:16.947Z,6.28
2022-10-28T16:32:49.067Z,4.80
2022-10-28T16:35:24.437Z,4.75
2022-10-28T16:37:55.522Z,5.28
2022-10-28T16:40:50.387Z,5.00
2022-10-28T16:43:25.189Z,4.88
2022-10-28T16:45:55.742Z,4.55
2022-10-28T16:48:28.942Z,5.17
2022-10-28T16:51:01.812Z,5.32
2022-10-28T16:53:29.380Z,5.00
2022-10-28T16:55:59.187Z,4.78
2022-10-28T16:58:30.608Z,5.32
2022-10-28T17:01:00.186Z,5.00
2022-10-28T17:03:29.755Z,4.75
2022-10-28T17:05:57.548Z,6.75
2022-10-28T17:08:48.922Z,5.85
2022-10-28T17:11:16.223Z,6.35
2022-10-28T17:13:43.759Z,5.70
2022-10-28T17:16:12.917Z,5.93
2022-10-28T17:18:40.354Z,5.90
2022-10-28T17:21:08.714Z,6.05
2022-10-28T17:23:36.360Z,5.25
2022-10-28T17:26:03.780Z,5.65
2022-10-28T17:28:32.499Z,5.78
2022-10-28T17:31:06.415Z,5.80
2022-10-28T17:33:36.069Z,5.15
2022-10-28T17:36:05.904Z,5.85
2022-10-28T17:38:33.784Z,5.53
2022-10-28T17:41:01.649Z,5.18
2022-10-28T17:43:29.203Z,5.85
2022-10-28T17:46:04.933Z,5.28
2022-10-28T17:48:32.395Z,5.00
2022-10-28T17:50:59.933Z,4.97
2022-10-28T17:53:27.579Z,5.72
2022-10-28T17:55:59.232Z,5.45
2022-10-28T17:58:26.884Z,5.70
2022-10-28T18:01:02.796Z,5.15
2022-10-28T18:03:34.017Z,5.53
2022-10-28T18:06:07.460Z,5.18
2022-10-28T18:08:38.526Z,4.63
2022-10-28T18:11:07.860Z,5.97
2022-10-28T18:13:37.830Z,5.18
2022-10-28T18:16:11.779Z,5.63
2022-10-28T18:18:42.429Z,5.22
2022-10-28T18:21:12.530Z,5.25
2022-10-28T18:23:43.774Z,6.15
2022-10-28T18:26:15.357Z,6.55
2022-10-28T18:28:44.120Z,6.32
2022-10-28T18:31:14.374Z,6.18
2022-10-28T18:33:42.561Z,6.07
2022-10-28T18:36:19.345Z,6.63
2022-10-28T18:38:47.571Z,6.45
2022-10-28T18:41:18.101Z,6.38
2022-10-28T18:43:46.081Z,6.30
2022-10-28T18:46:14.629Z,6.57
2022-10-28T18:48:42.081Z,7.25
2022-10-28T18:51:11.793Z,6.82
2022-10-28T18:53:42.172Z,7.40
2022-10-28T18:56:19.408Z,6.55
2022-10-28T18:58:49.266Z,7.38
2022-10-28T19:01:20.616Z,6.32
2022-10-28T19:03:52.848Z,6.10
2022-10-28T19:06:21.070Z,6.97
2022-10-28T19:08:54.047Z,6.90
2022-10-28T19:11:23.073Z,7.20
2022-10-28T19:13:50.458Z,7.00
2022-10-28T19:16:19.124Z,6.95
2022-10-28T19:18:46.573Z,7.00
2022-10-28T19:21:15.714Z,7.22
2022-10-28T19:23:43.666Z,7.03
2022-10-28T19:26:11.603Z,6.47
2022-10-28T19:28:41.755Z,7.38
2022-10-28T19:31:11.963Z,7.13
2022-10-28T19:33:41.882Z,7.25
2022-10-28T19:36:30.288Z,6.93
2022-10-28T19:39:00.993Z,6.28
2022-10-28T19:41:30.034Z,5.97
2022-10-28T19:44:02.089Z,6.35
2022-10-28T19:46:31.816Z,6.00
2022-10-28T19:49:05.905Z,6.00
2022-10-28T19:51:36.155Z,6.20
2022-10-28T19:54:10.292Z,5.85
2022-10-28T19:56:38.762Z,6.28
2022-10-28T19:59:06.823Z,6.40
2022-10-28T20:01:37.636Z,6.28
2022-10-28T20:04:06.360Z,6.97
2022-10-28T20:06:35.967Z,6.43
2022-10-28T20:09:04.229Z,7.25
2022-10-28T20:11:34.391Z,7.57
2022-10-28T20:14:09.054Z,7.72
2022-10-28T20:16:36.833Z,6.65
2022-10-28T20:19:04.615Z,7.10
2022-10-28T20:21:33.866Z,7.13
2022-10-28T20:24:01.698Z,6.03
2022-10-28T20:26:31.914Z,5.63
2022-10-28T20:29:06.721Z,5.65
2022-10-28T20:31:39.093Z,6.50
2022-10-28T20:34:07.125Z,6.43
2022-10-28T20:36:39.641Z,6.20
2022-10-28T20:39:13.944Z,5.63
2022-10-28T20:41:43.326Z,6.90
2022-10-28T20:44:10.974Z,6.88
2022-10-28T20:46:38.737Z,6.40
2022-10-28T20:49:08.600Z,6.13
2022-10-28T20:51:36.562Z,6.72
2022-10-28T20:54:04.415Z,7.35
2022-10-28T20:56:34.126Z,7.28
2022-10-28T20:59:01.877Z,7.53
2022-10-28T21:01:35.610Z,6.93
2022-10-28T21:04:06.084Z,7.10
2022-10-28T21:06:34.220Z,6.57
2022-10-28T21:09:02.084Z,7.25
2022-10-28T21:11:29.369Z,6.68
2022-10-28T21:13:59.571Z,7.45
2022-10-28T21:16:28.616Z,8.93
2022-10-28T21:18:56.136Z,9.32
2022-10-28T21:21:24.963Z,8.73
2022-10-28T21:23:53.418Z,7.97
2022-10-28T21:26:20.876Z,6.90
2022-10-28T21:28:52.411Z,6.68
2022-10-28T21:31:21.029Z,6.85
2022-10-28T21:36:21.546Z,6.55
2022-10-28T21:38:54.516Z,6.55
2022-10-28T21:41:23.208Z,5.95
2022-10-28T21:43:51.827Z,6.20
2022-10-28T21:46:21.602Z,6.22
2022-10-28T21:48:49.512Z,5.38
2022-10-28T21:51:17.405Z,6.20
2022-10-28T21:53:45.907Z,6.30
2022-10-28T21:56:18.201Z,6.30
2022-10-28T21:58:48.411Z,5.72
2022-10-28T22:01:21.600Z,5.68
2022-10-28T22:06:16.741Z,6.15
2022-10-28T22:08:44.892Z,6.18
2022-10-28T22:11:18.302Z,5.57
2022-10-28T22:13:47.178Z,5.80
2022-10-28T22:16:17.948Z,6.97
2022-10-28T22:18:46.676Z,6.00
2022-10-28T22:21:17.438Z,6.63
2022-10-28T22:23:45.436Z,5.93
2022-10-28T22:26:16.179Z,6.10
2022-10-28T22:28:44.205Z,6.03
2022-10-28T22:31:15.363Z,6.05
2022-10-28T22:33:43.031Z,5.78
2022-10-28T22:36:13.340Z,6.57
2022-10-28T22:38:43.909Z,6.13
2022-10-28T22:41:12.785Z,6.57
2022-10-28T22:43:41.549Z,5.70
2022-10-28T22:46:13.457Z,5.95
2022-10-28T22:48:41.810Z,5.57
2022-10-28T22:51:12.123Z,5.18
2022-10-28T22:53:40.784Z,5.63
2022-10-28T22:56:13.162Z,5.85
2022-10-28T22:58:40.621Z,5.37
2022-10-28T23:01:12.289Z,6.00
2022-10-28T23:03:41.962Z,5.70
2022-10-28T23:06:10.447Z,6.15
2022-10-28T23:08:40.473Z,5.38
2022-10-28T23:11:09.332Z,5.25
2022-10-28T23:16:09.978Z,5.18
2022-10-28T23:18:38.064Z,5.72
2022-10-28T23:21:07.229Z,5.53
2022-10-28T23:23:34.991Z,5.18
2022-10-28T23:26:02.981Z,4.80
2022-10-28T23:28:31.139Z,4.82
2022-10-28T23:31:03.582Z,4.72
2022-10-28T23:33:32.172Z,5.18
2022-10-28T23:36:01.264Z,4.97
2022-10-28T23:38:28.808Z,5.20
2022-10-28T23:41:02.031Z,4.90
2022-10-28T23:46:00.700Z,4.60
2022-10-28T23:48:29.342Z,4.97
2022-10-28T23:50:59.328Z,4.88
2022-10-28T23:53:30.735Z,4.85
2022-10-28T23:55:58.909Z,4.97
2022-10-28T23:58:26.902Z,5.07
